Time;durP1;ratioP1;P1;durP2;ratioP2;P2;SDS_P1;SDS_P2;PMS_P1;PMS_P2;Temp;Humidity;BMP_temperature;BMP_pressure;BME280_temperature;BME280_humidity;BME280_pressure;Samples;Min_cycle;Max_cycle;Signal;HPM_P1;HPM_P2
2022/05/12 00:02:11;;;;;;;9.98;8.35;;;;;;;14.94;100.00;100569.53;5058703;22;20510;-72
2022/05/12 00:04:38;;;;;;;10.23;8.30;;;;;;;14.58;100.00;100525.59;4318315;28;10000603;-73
2022/05/12 00:07:04;;;;;;;9.45;8.07;;;;;;;14.75;100.00;100579.63;4992362;28;20034;-73
2022/05/12 00:09:30;;;;;;;10.75;8.05;;;;;;;15.05;100.00;100593.03;4992542;28;20026;-73
2022/05/12 00:11:56;;;;;;;12.27;8.73;;;;;;;14.67;100.00;100534.69;4974914;28;20084;-73
2022/05/12 00:14:21;;;;;;;12.43;8.68;;;;;;;14.54;100.00;100541.13;4976690;28;20044;-73
2022/05/12 00:16:47;;;;;;;16.60;8.35;;;;;;;14.72;100.00;100587.38;4994593;28;20026;-73
2022/05/12 00:19:13;;;;;;;10.35;8.40;;;;;;;14.85;100.00;100585.25;5011926;28;20534;-73
2022/05/12 00:21:38;;;;;;;8.90;7.60;;;;;;;14.27;100.00;100527.53;5011756;28;20033;-73
2022/05/12 00:24:06;;;;;;;11.50;7.55;;;;;;;14.31;100.00;100543.63;5011997;28;20041;-73
2022/05/12 00:26:34;;;;;;;12.50;8.05;;;;;;;14.20;100.00;100545.72;5011691;28;20030;-72
2022/05/12 00:29:01;;;;;;;11.35;7.07;;;;;;;13.55;100.00;100476.28;4994446;28;20453;-73
2022/05/12 00:31:28;;;;;;;10.75;7.45;;;;;;;14.23;100.00;100586.50;5010586;28;20487;-73
2022/05/12 00:33:55;;;;;;;10.85;7.90;;;;;;;13.97;100.00;100530.28;5011342;28;20026;-72
2022/05/12 00:36:21;;;;;;;9.73;7.70;;;;;;;13.85;100.00;100550.25;5011759;28;20553;-72
2022/05/12 00:38:46;;;;;;;10.93;7.68;;;;;;;13.79;100.00;100524.88;5011839;28;20033;-73
2022/05/12 00:41:12;;;;;;;10.52;7.57;;;;;;;13.73;100.00;100511.47;5011528;28;20065;-72
2022/05/12 00:43:52;;;;;;;9.25;7.70;;;;;;;14.18;100.00;100588.41;4994207;28;20030;-72
2022/05/12 00:46:21;;;;;;;10.10;8.00;;;;;;;14.22;100.00;100574.63;5011356;28;20073;-72
2022/05/12 00:48:49;;;;;;;10.50;7.85;;;;;;;13.80;100.00;100579.41;4994193;28;20385;-71
2022/05/12 00:51:26;;;;;;;14.32;7.53;;;;;;;13.88;100.00;100539.09;5015466;28;20100;-73
2022/05/12 00:53:55;;;;;;;11.48;7.88;;;;;;;13.61;100.00;100501.63;5015602;28;20056;-73
2022/05/12 00:56:23;;;;;;;10.60;7.55;;;;;;;13.64;100.00;100511.78;5015402;28;20030;-73
2022/05/12 00:58:52;;;;;;;14.15;8.32;;;;;;;13.46;100.00;100543.84;5015063;28;20038;-72
2022/05/12 01:01:17;;;;;;;11.98;8.18;;;;;;;13.19;100.00;100572.75;5014916;28;20044;-73
2022/05/12 01:03:44;;;;;;;12.25;8.07;;;;;;;13.54;100.00;100562.31;5015026;28;20037;-73
2022/05/12 01:06:12;;;;;;;11.52;8.82;;;;;;;12.97;100.00;100556.34;5013562;28;20475;-72
2022/05/12 01:08:39;;;;;;;11.82;8.77;;;;;;;12.40;100.00;100484.00;4997207;28;20030;-72
2022/05/12 01:11:11;;;;;;;13.88;8.85;;;;;;;13.16;100.00;100537.09;4996864;28;20034;-73
2022/05/12 01:13:37;;;;;;;10.82;8.75;;;;;;;12.60;100.00;100535.25;5014557;28;20116;-73
2022/05/12 01:16:03;;;;;;;10.95;8.88;;;;;;;13.54;100.00;100582.75;5014687;28;20061;-72
2022/05/12 01:18:31;;;;;;;11.15;7.70;;;;;;;14.46;100.00;100564.41;4996402;28;20100;-70
2022/05/12 01:20:57;;;;;;;10.82;8.52;;;;;;;13.25;100.00;100518.13;5014868;28;20029;-72
2022/05/12 01:23:32;;;;;;;15.20;9.10;;;;;;;13.42;100.00;100588.22;4997197;28;20026;-72
2022/05/12 01:26:04;;;;;;;11.50;8.95;;;;;;;12.80;100.00;100566.16;5014724;28;20103;-73
2022/05/12 01:28:29;;;;;;;;;;;;;;;12.84;100.00;100586.47;5015345;28;20037;-73
2022/05/12 01:30:55;;;;;;;13.27;8.63;;;;;;;12.50;100.00;100564.47;4997034;28;19909;-73
2022/05/12 01:33:21;;;;;;;13.57;8.32;;;;;;;12.42;100.00;100540.88;5014693;28;20069;-72
2022/05/12 01:35:47;;;;;;;13.05;9.10;;;;;;;12.97;100.00;100589.53;5014517;28;20475;-73
2022/05/12 01:38:13;;;;;;;11.35;8.27;;;;;;;12.52;100.00;100549.97;5014880;28;20041;-72
2022/05/12 01:40:40;;;;;;;13.63;9.02;;;;;;;12.18;100.00;100599.25;5014612;28;20031;-72
2022/05/12 01:43:06;;;;;;;14.55;9.02;;;;;;;12.80;100.00;100594.25;5013354;28;20049;-72
2022/05/12 01:45:32;;;;;;;12.75;10.15;;;;;;;12.67;100.00;100603.97;5014417;28;20492;-73
2022/05/12 01:47:57;;;;;;;16.80;10.35;;;;;;;12.49;100.00;100571.28;5014577;28;20036;-73
2022/05/12 01:50:23;;;;;;;18.60;9.60;;;;;;;13.17;100.00;100596.66;5014288;28;20030;-72
2022/05/12 01:52:49;;;;;;;14.10;10.05;;;;;;;12.30;100.00;100523.34;5014541;28;20124;-72
2022/05/12 01:55:17;;;;;;;16.70;9.98;;;;;;;12.38;100.00;100539.28;5014346;28;20431;-72
2022/05/12 01:57:43;;;;;;;18.90;9.77;;;;;;;12.44;100.00;100592.69;4996279;28;20048;-72
2022/05/12 02:00:12;;;;;;;17.00;10.00;;;;;;;12.31;100.00;100538.59;4996742;28;20073;-73
2022/05/12 02:02:38;;;;;;;15.90;10.55;;;;;;;12.29;100.00;100535.25;5013487;28;20487;-73
2022/05/12 02:05:05;;;;;;;15.32;9.75;;;;;;;13.00;100.00;100592.81;5013918;28;20026;-72
2022/05/12 02:07:30;;;;;;;15.95;9.85;;;;;;;12.63;100.00;100564.09;5014010;28;20036;-73
2022/05/12 02:09:56;;;;;;;11.55;10.27;;;;;;;12.71;100.00;100581.75;5014090;28;20058;-72
2022/05/12 02:12:21;;;;;;;15.05;9.93;;;;;;;12.35;100.00;100547.84;4996253;28;20026;-72
2022/05/12 02:14:46;;;;;;;15.75;9.45;;;;;;;12.86;100.00;100594.91;4996360;28;20057;-72
2022/05/12 02:17:12;;;;;;;13.35;10.18;;;;;;;12.68;100.00;100580.09;4996229;28;20037;-73
2022/05/12 02:19:37;;;;;;;16.15;10.27;;;;;;;12.36;100.00;100493.41;5013837;28;20030;-72
2022/05/12 02:22:03;;;;;;;15.07;9.43;;;;;;;12.14;100.00;100505.88;5013763;28;20034;-73
2022/05/12 02:24:29;;;;;;;13.25;9.60;;;;;;;12.40;100.00;100537.53;5013489;28;20029;-73
2022/05/12 02:26:56;;;;;;;17.70;10.20;;;;;;;12.26;100.00;100558.25;5013533;28;20041;-72
2022/05/12 02:29:22;;;;;;;12.25;9.90;;;;;;;12.52;100.00;100529.56;4996179;28;20045;-73
2022/05/12 02:31:48;;;;;;;10.68;9.48;;;;;;;12.47;100.00;100598.53;5013803;28;20022;-73
2022/05/12 02:34:14;;;;;;;11.75;8.85;;;;;;;12.04;100.00;100524.03;5013603;28;20030;-73
2022/05/12 02:36:39;;;;;;;12.32;9.38;;;;;;;11.89;100.00;100537.97;5013564;28;20522;-73
2022/05/12 02:39:04;;;;;;;13.20;9.20;;;;;;;12.32;100.00;100562.41;5013361;28;20065;-72
2022/05/12 02:41:30;;;;;;;10.63;8.63;;;;;;;12.62;100.00;100592.19;5013595;28;20026;-72
2022/05/12 02:43:55;;;;;;;11.82;8.80;;;;;;;12.24;100.00;100551.56;5013391;28;20127;-74
2022/05/12 02:46:21;;;;;;;11.60;9.00;;;;;;;12.39;100.00;100589.41;5013108;28;20045;-73
2022/05/12 02:48:47;;;;;;;11.45;9.32;;;;;;;12.41;100.00;100546.84;5012976;28;20026;-73
2022/05/12 02:51:13;;;;;;;11.20;8.73;;;;;;;12.71;100.00;100595.34;4996304;28;20506;-73
2022/05/12 02:53:40;;;;;;;12.85;9.43;;;;;;;12.28;100.00;100517.47;5013332;28;20108;-73
2022/05/12 02:56:07;;;;;;;10.23;9.15;;;;;;;12.02;100.00;100534.22;4995777;28;20095;-72
2022/05/12 02:58:33;;;;;;;11.63;9.30;;;;;;;12.34;100.00;100576.75;4995907;28;20030;-73
2022/05/12 03:00:59;;;;;;;14.90;9.32;;;;;;;12.40;100.00;100525.59;5013227;28;20025;-73
2022/05/12 03:03:25;;;;;;;13.63;10.05;;;;;;;12.48;100.00;100600.19;5012960;28;20057;-73
2022/05/12 03:05:52;;;;;;;13.50;9.60;;;;;;;11.91;100.00;100538.78;5013213;28;20088;-72
2022/05/12 03:08:18;;;;;;;12.52;9.02;;;;;;;12.11;100.00;100567.16;5012790;28;20033;-72
2022/05/12 03:10:45;;;;;;;13.02;9.27;;;;;;;12.50;100.00;100595.88;5013185;28;20033;-72
2022/05/12 03:13:11;;;;;;;12.65;9.32;;;;;;;12.22;100.00;100546.50;5012640;28;20149;-73
2022/05/12 03:15:37;;;;;;;11.60;9.40;;;;;;;12.07;100.00;100524.78;5013109;28;20419;-73
2022/05/12 03:18:02;;;;;;;12.90;9.93;;;;;;;12.57;100.00;100616.97;5013122;28;20033;-72
2022/05/12 03:20:32;;;;;;;17.25;11.10;;;;;;;12.74;100.00;100596.97;4995426;28;20161;-72
2022/05/12 03:22:58;;;;;;;21.67;11.52;;;;;;;12.49;100.00;100608.69;5012754;28;20041;-74
2022/05/12 03:25:24;;;;;;;22.23;11.13;;;;;;;12.48;100.00;100628.25;4995302;28;20492;-72
2022/05/12 03:27:50;;;;;;;21.58;11.43;;;;;;;12.48;100.00;100612.13;4995312;28;20029;-73
2022/05/12 03:30:19;;;;;;;26.17;10.77;;;;;;;12.03;100.00;100571.59;5012720;28;20034;-73
2022/05/12 03:32:45;;;;;;;20.05;10.15;;;;;;;11.96;100.00;100599.81;5012783;28;20088;-73
2022/05/12 03:35:11;;;;;;;19.98;9.70;;;;;;;12.35;100.00;100629.44;5012569;28;20026;-73
2022/05/12 03:37:37;;;;;;;18.52;9.68;;;;;;;12.62;100.00;100631.28;5012382;28;20026;-73
2022/05/12 03:40:07;;;;;;;16.88;9.27;;;;;;;12.59;100.00;100633.09;4995027;28;20029;-73
2022/05/12 03:42:33;;;;;;;15.30;9.98;;;;;;;12.33;100.00;100649.03;5012607;28;20029;-74
2022/05/12 03:44:59;;;;;;;14.32;9.02;;;;;;;11.75;100.00;100579.91;5012410;28;20463;-73
2022/05/12 03:47:32;;;;;;;18.42;8.73;;;;;;;11.76;100.00;100658.88;4994874;28;20037;-73
2022/05/12 03:50:19;;;;;;;18.20;8.32;;;;;;;11.84;100.00;100649.34;5027447;28;20183;-72
2022/05/12 03:52:47;;;;;;;12.43;8.32;;;;;;;11.47;100.00;100645.06;5031181;28;20022;-70
2022/05/12 03:55:13;;;;;;;15.88;8.95;;;;;;;11.88;100.00;100648.41;5031126;28;20510;-71
2022/05/12 03:57:39;;;;;;;12.35;8.95;;;;;;;12.20;100.00;100652.78;5014247;28;20029;-71
2022/05/12 04:00:08;;;;;;;11.40;8.50;;;;;;;12.16;100.00;100671.56;5010395;28;20042;-72
2022/05/12 04:02:33;;;;;;;13.65;9.85;;;;;;;11.92;100.00;100616.88;5010972;28;20065;-71
2022/05/12 04:04:59;;;;;;;14.13;10.32;;;;;;;12.03;100.00;100665.03;5011126;28;20034;-71
2022/05/12 04:07:25;;;;;;;13.82;10.48;;;;;;;11.95;100.00;100649.94;4993772;28;20034;-71
2022/05/12 04:09:52;;;;;;;16.05;11.05;;;;;;;12.06;100.00;100667.53;5011842;28;20034;-71
2022/05/12 04:12:18;;;;;;;17.02;10.70;;;;;;;12.22;100.00;100599.19;4993639;28;20036;-72
2022/05/12 04:14:44;;;;;;;17.27;11.02;;;;;;;12.82;100.00;100674.13;5011371;28;20034;-70
2022/05/12 04:17:15;;;;;;;14.95;11.05;;;;;;;12.75;100.00;100673.47;4993181;28;20068;-70
2022/05/12 04:19:42;;;;;;;16.48;11.50;;;;;;;12.29;100.00;100621.09;5011133;28;20030;-69
2022/05/12 04:22:08;;;;;;;14.82;11.18;;;;;;;12.88;100.00;100658.66;5011037;28;20037;-71
2022/05/12 04:24:33;;;;;;;19.58;10.80;;;;;;;13.25;100.00;100669.59;4994588;28;20026;-71
2022/05/12 04:26:59;;;;;;;16.15;10.30;;;;;;;13.17;100.00;100673.25;5014966;28;20022;-71
2022/05/12 04:29:25;;;;;;;18.98;10.73;;;;;;;13.12;100.00;100667.41;5014505;28;20030;-70
2022/05/12 04:31:50;;;;;;;18.45;11.48;;;;;;;13.56;100.00;100667.00;5015243;28;20403;-70
2022/05/12 04:37:00;;;;;;;21.67;11.20;;;;;;;13.48;100.00;100617.88;5014781;28;20099;-69
2022/05/12 04:39:26;;;;;;;17.00;10.60;;;;;;;13.71;100.00;100615.44;5013715;28;20026;-72
2022/05/12 04:41:51;;;;;;;19.45;10.90;;;;;;;14.25;100.00;100646.97;5001329;28;20026;-72
2022/05/12 04:44:17;;;;;;;15.73;10.70;;;;;;;14.16;100.00;100665.19;4994874;28;20033;-71
2022/05/12 04:46:42;;;;;;;15.23;11.15;;;;;;;14.29;100.00;100657.97;5003650;28;20038;-71
2022/05/12 04:49:10;;;;;;;14.57;11.60;;;;;;;13.84;100.00;100609.09;5015099;28;20030;-71
2022/05/12 04:51:37;;;;;;;15.95;11.90;;;;;;;14.45;100.00;100670.22;5013946;28;20080;-71
2022/05/12 04:54:03;;;;;;;23.10;11.18;;;;;;;14.53;100.00;100675.06;5014223;28;20404;-72
2022/05/12 04:56:28;;;;;;;19.25;10.70;;;;;;;14.82;100.00;100689.44;5013889;28;20037;-70
2022/05/12 04:58:54;;;;;;;18.52;11.00;;;;;;;14.50;100.00;100635.06;5014715;28;20041;-71
2022/05/12 05:01:19;;;;;;;17.27;10.93;;;;;;;15.07;100.00;100652.72;4997036;28;20048;-72
2022/05/12 05:03:45;;;;;;;19.38;10.52;;;;;;;15.14;100.00;100690.03;5014652;28;20445;-72
2022/05/12 05:06:10;;;;;;;13.50;9.95;;;;;;;15.08;100.00;100603.16;5014104;28;20103;-72
2022/05/12 05:08:37;;;;;;;16.92;10.60;;;;;;;15.77;100.00;100686.06;5014569;28;20060;-72
2022/05/12 05:11:06;;;;;;;16.75;10.48;;;;;;;16.06;100.00;100688.34;5014010;28;20108;-76
2022/05/12 05:13:32;;;;;;;14.32;10.45;;;;;;;16.34;100.00;100694.88;4996591;28;20049;-72
2022/05/12 05:15:58;;;;;;;15.35;9.88;;;;;;;15.84;100.00;100652.41;5013065;28;20032;-72
2022/05/12 05:18:24;;;;;;;16.30;10.07;;;;;;;15.97;100.00;100633.09;5005185;28;20030;-72
2022/05/12 05:20:50;;;;;;;16.80;10.27;;;;;;;16.24;100.00;100662.75;4994492;28;20034;-72
2022/05/12 05:23:16;;;;;;;18.20;10.13;;;;;;;16.56;100.00;100653.78;4977403;28;20062;-72
2022/05/12 05:25:42;;;;;;;14.32;9.88;;;;;;;16.28;100.00;100663.50;4994565;28;20034;-72
2022/05/12 05:28:09;;;;;;;11.30;9.88;;;;;;;16.77;100.00;100683.72;5002923;28;20033;-72
2022/05/12 05:30:35;;;;;;;23.33;10.00;;;;;;;16.06;100.00;100660.13;4993583;28;20072;-71
2022/05/12 05:33:00;;;;;;;13.80;10.65;;;;;;;16.63;100.00;100644.94;5013885;28;20435;-71
2022/05/12 05:35:26;;;;;;;15.98;9.77;;;;;;;16.38;100.00;100682.75;4996151;28;20384;-71
2022/05/12 05:37:53;;;;;;;14.38;10.05;;;;;;;17.05;100.00;100707.34;5014006;28;20514;-72
2022/05/12 05:40:22;;;;;;;19.42;13.60;;;;;;;17.05;100.00;100678.25;5013622;28;20499;-72
2022/05/12 05:42:48;;;;;;;13.05;9.65;;;;;;;16.25;100.00;100655.91;5014169;28;20033;-72
2022/05/12 05:45:17;;;;;;;14.32;9.32;;;;;;;16.88;100.00;100658.41;4996132;28;20415;-72
2022/05/12 05:47:46;;;;;;;13.75;9.10;;;;;;;18.03;100.00;100697.75;5013739;28;20514;-72
2022/05/12 05:50:18;;;;;;;16.15;9.90;;;;;;;17.97;100.00;100648.31;5014098;28;20109;-69
2022/05/12 05:55:27;;;;;;;17.67;9.48;;;;;;;17.07;100.00;100636.13;5013554;28;20424;-69
2022/05/12 05:57:53;;;;;;;16.23;10.88;;;;;;;17.20;100.00;100673.25;5013337;28;20049;-72
2022/05/12 06:00:19;;;;;;;13.75;9.02;;;;;;;17.84;100.00;100707.25;4995397;28;20034;-70
2022/05/12 06:02:45;;;;;;;16.67;9.18;;;;;;;17.90;100.00;100613.50;5013130;28;20057;-70
2022/05/12 06:05:11;;;;;;;14.57;9.65;;;;;;;18.72;100.00;100709.00;5013188;28;20034;-70
2022/05/12 06:07:38;;;;;;;15.52;8.88;;;;;;;19.31;100.00;100708.56;5012738;28;20034;-70
2022/05/12 06:10:06;;;;;;;10.15;7.75;;;;;;;19.07;100.00;100709.81;5012969;28;20423;-70
2022/05/12 06:12:32;;;;;;;11.68;7.82;;;;;;;19.14;100.00;100700.84;5013039;28;20026;-69
2022/05/12 06:14:58;;;;;;;13.55;8.48;;;;;;;18.90;100.00;100666.84;5012804;28;20072;-69
2022/05/12 06:17:23;;;;;;;12.00;7.75;;;;;;;19.39;100.00;100646.28;5012840;28;20034;-69
2022/05/12 06:19:50;;;;;;;11.23;7.50;;;;;;;19.83;100.00;100696.28;5012538;28;20091;-70
2022/05/12 06:22:19;;;;;;;10.10;7.13;;;;;;;18.91;100.00;100703.75;4993944;28;20451;-69
2022/05/12 06:24:45;;;;;;;14.20;8.10;;;;;;;19.70;100.00;100708.22;5012038;28;20095;-69
2022/05/12 06:27:11;;;;;;;11.05;7.30;;;;;;;18.86;100.00;100652.44;4978839;28;20038;-70
2022/05/12 06:29:36;;;;;;;8.13;6.88;;;;;;;19.19;100.00;100670.50;5008979;28;20105;-70
2022/05/12 06:32:02;;;;;;;8.88;5.78;;;;;;;20.05;100.00;100696.78;4993684;28;20030;-69
2022/05/12 06:34:29;;;;;;;8.70;5.78;;;;;;;20.07;100.00;100640.72;5000839;28;20030;-70
2022/05/12 06:36:56;;;;;;;7.90;6.00;;;;;;;19.79;100.00;100622.53;5012576;28;20033;-68
2022/05/12 06:39:21;;;;;;;9.35;6.25;;;;;;;20.62;100.00;100688.34;5012563;28;20069;-69
2022/05/12 06:41:47;;;;;;;8.65;5.80;;;;;;;20.89;100.00;100698.00;5012249;28;20057;-69
2022/05/12 06:44:12;;;;;;;12.27;6.10;;;;;;;20.44;100.00;100639.50;4994940;28;20030;-69
2022/05/12 06:46:39;;;;;;;11.90;5.78;;;;;;;20.98;100.00;100636.22;5011579;28;20144;-71
2022/05/12 06:49:05;;;;;;;15.15;6.25;;;;;;;21.02;100.00;100701.56;5011653;28;20029;-69
2022/05/12 06:51:30;;;;;;;9.68;5.78;;;;;;;21.62;100.00;100689.25;5012002;28;20033;-69
2022/05/12 06:53:56;;;;;;;13.60;6.60;;;;;;;21.49;100.00;100678.84;5012210;28;20022;-69
2022/05/12 06:56:21;;;;;;;12.13;5.90;;;;;;;21.35;100.00;100642.63;5011961;28;20419;-69
2022/05/12 06:58:46;;;;;;;7.90;5.78;;;;;;;21.38;100.00;100674.31;5012150;28;20072;-69
2022/05/12 07:01:12;;;;;;;8.20;5.88;;;;;;;21.37;100.00;100628.66;5011935;28;20423;-69
2022/05/12 07:03:38;;;;;;;8.77;6.38;;;;;;;21.97;100.00;100695.66;5011908;28;20591;-69
2022/05/12 07:06:05;;;;;;;8.95;5.88;;;;;;;21.87;100.00;100646.22;5009881;28;20045;-70
2022/05/12 07:08:31;;;;;;;12.00;6.35;;;;;;;21.86;100.00;100644.56;4992999;28;20034;-70
2022/05/12 07:10:58;;;;;;;11.25;6.65;;;;;;;21.24;100.00;100647.63;5010511;28;20436;-70
2022/05/12 07:13:24;;;;;;;9.80;6.15;;;;;;;22.18;100.00;100676.19;4992857;28;20075;-70
2022/05/12 07:15:50;;;;;;;7.35;5.65;;;;;;;22.26;99.76;100642.81;5010478;28;20054;-69
2022/05/12 07:18:17;;;;;;;7.68;5.72;;;;;;;21.48;100.00;100622.81;5010447;28;20021;-68
2022/05/12 07:28:55;;;;;;;9.40;6.10;;;;;;;22.12;95.65;100672.22;5004512;28;20131;-69
2022/05/12 07:31:21;;;;;;;12.38;6.57;;;;;;;23.01;92.17;100644.66;5011425;28;20513;-70
2022/05/12 07:33:47;;;;;;;10.15;6.18;;;;;;;23.56;86.31;100671.06;5011395;28;20038;-69
2022/05/12 07:36:15;;;;;;;7.85;5.97;;;;;;;23.71;90.08;100684.75;5011437;28;20048;-69
2022/05/12 07:38:42;;;;;;;13.77;6.20;;;;;;;23.08;87.10;100662.28;5011342;28;20037;-69
2022/05/12 07:41:11;;;;;;;11.20;5.95;;;;;;;22.80;90.62;100643.53;5011079;28;20514;-69
2022/05/12 07:43:38;;;;;;;10.57;6.13;;;;;;;23.14;89.10;100656.69;4993459;28;20034;-69
2022/05/12 07:46:04;;;;;;;9.57;6.35;;;;;;;24.09;85.27;100623.91;5011331;28;20033;-69
2022/05/12 07:48:29;;;;;;;11.45;6.82;;;;;;;23.66;83.07;100677.28;4993466;28;20034;-69
2022/05/12 07:50:55;;;;;;;9.00;6.63;;;;;;;22.41;93.77;100670.31;5003829;28;20030;-69
2022/05/12 07:53:20;;;;;;;14.48;7.00;;;;;;;23.96;87.18;100637.88;5006999;28;20030;-69
2022/05/12 07:55:46;;;;;;;9.93;5.97;;;;;;;24.11;85.40;100652.38;4993249;28;20029;-69
2022/05/12 07:58:11;;;;;;;8.65;6.43;;;;;;;24.56;84.40;100664.56;5010802;28;20060;-68
2022/05/12 08:00:38;;;;;;;9.25;5.57;;;;;;;24.16;80.73;100639.88;5010672;28;20033;-69
2022/05/12 08:03:03;;;;;;;10.13;6.43;;;;;;;24.81;79.55;100668.78;5010961;28;20065;-69
2022/05/12 08:05:30;;;;;;;8.20;5.82;;;;;;;24.59;79.09;100674.75;4993170;28;20034;-68
2022/05/12 08:07:56;;;;;;;13.95;5.80;;;;;;;24.79;80.87;100655.91;5009046;28;20039;-69
2022/05/12 08:10:23;;;;;;;12.30;5.72;;;;;;;25.34;77.22;100657.69;5000684;28;20066;-69
2022/05/12 08:12:50;;;;;;;12.27;5.88;;;;;;;25.13;77.50;100664.56;4991218;28;20049;-69
2022/05/12 08:15:15;;;;;;;13.27;6.38;;;;;;;24.57;78.63;100619.41;5004444;28;20120;-69
2022/05/12 08:17:41;;;;;;;15.45;5.80;;;;;;;25.62;77.43;100665.00;5010920;28;20040;-68
2022/05/12 08:20:08;;;;;;;10.93;5.47;;;;;;;24.57;76.21;100583.00;5010733;28;20414;-68
2022/05/12 08:22:34;;;;;;;7.53;5.68;;;;;;;24.07;79.09;100612.78;4992890;28;20121;-69
2022/05/12 08:25:00;;;;;;;7.65;5.07;;;;;;;25.63;78.96;100647.59;5010409;28;20113;-69
2022/05/12 08:27:25;;;;;;;11.25;5.80;;;;;;;25.07;75.41;100618.19;4993301;28;20199;-69
2022/05/12 08:29:54;;;;;;;6.93;5.55;;;;;;;25.05;76.55;100609.66;5011024;28;20056;-69
2022/05/12 08:32:19;;;;;;;8.45;5.40;;;;;;;25.44;77.50;100596.13;4993110;28;20033;-70
2022/05/12 08:34:45;;;;;;;11.75;6.25;;;;;;;25.99;78.52;100644.63;5010581;28;20519;-69
2022/05/12 08:37:11;;;;;;;7.53;5.63;;;;;;;25.16;77.45;100611.41;4992835;28;20034;-69
2022/05/12 08:39:38;;;;;;;9.52;5.80;;;;;;;24.81;78.78;100632.38;5010434;28;20507;-70
2022/05/12 08:42:37;;;;;;;10.23;5.40;;;;;;;26.84;75.64;100659.25;4993144;28;20459;-69
2022/05/12 08:45:08;;;;;;;10.00;5.60;;;;;;;26.70;72.81;100650.94;5010411;28;20049;-71
2022/05/12 08:47:42;;;;;;;9.68;5.50;;;;;;;27.00;67.85;100664.84;5010443;28;20022;-70
2022/05/12 08:50:09;;;;;;;9.30;5.28;;;;;;;25.79;70.20;100664.47;5010105;28;20046;-70
2022/05/12 08:52:42;;;;;;;8.27;5.00;;;;;;;26.64;67.79;100662.72;4993043;28;20042;-70
2022/05/12 08:55:15;;;;;;;6.90;4.85;;;;;;;26.44;66.27;100601.75;5010590;28;20032;-70
2022/05/12 08:57:58;;;;;;;7.25;5.43;;;;;;;25.40;67.67;100659.84;4992923;28;20068;-70
2022/05/12 09:00:27;;;;;;;6.22;4.80;;;;;;;27.32;65.07;100638.56;5010340;28;20088;-70
2022/05/12 09:03:23;;;;;;;6.85;5.10;;;;;;;26.88;65.36;100649.41;5010646;28;20073;-70
2022/05/12 09:06:02;;;;;;;7.22;4.85;;;;;;;25.90;66.39;100592.41;4992927;28;20077;-70
2022/05/12 09:09:06;;;;;;;6.15;4.57;;;;;;;26.48;64.71;100641.47;5010265;28;20060;-69
2022/05/12 09:11:44;;;;;;;8.77;4.40;;;;;;;28.05;61.12;100643.41;5012289;28;20087;-70
2022/05/12 09:14:21;;;;;;;7.20;4.95;;;;;;;25.86;62.21;100585.81;4996476;28;20037;-70
2022/05/12 09:16:52;;;;;;;7.88;4.22;;;;;;;27.65;57.94;100625.22;5013892;28;20088;-70
2022/05/12 09:19:19;;;;;;;6.45;4.57;;;;;;;26.91;60.04;100620.44;5013709;28;20029;-70
2022/05/12 09:21:45;;;;;;;5.43;3.80;;;;;;;26.83;56.95;100615.03;5013962;28;20069;-70
2022/05/12 09:24:11;;;;;;;4.88;3.90;;;;;;;27.97;56.74;100591.00;5013924;28;20533;-69
2022/05/12 09:26:44;;;;;;;7.15;3.95;;;;;;;27.19;57.89;100586.59;5013766;28;20168;-69
2022/05/12 09:29:31;;;;;;;6.95;3.97;;;;;;;27.68;55.46;100585.72;4996019;28;20040;-69
2022/05/12 09:32:03;;;;;;;7.20;3.42;;;;;;;28.18;54.50;100623.88;5013646;28;20496;-70
2022/05/12 09:34:38;;;;;;;6.57;3.72;;;;;;;27.72;54.85;100626.31;5014002;28;20042;-68
2022/05/12 09:37:12;;;;;;;6.55;3.70;;;;;;;28.28;55.81;100624.69;5014030;28;20033;-71
2022/05/12 09:39:41;;;;;;;5.57;3.47;;;;;;;27.82;53.17;100574.00;5013498;28;20034;-70
2022/05/12 09:42:15;;;;;;;7.55;3.72;;;;;;;27.92;53.88;100572.22;5013416;28;20029;-70
2022/05/12 09:44:52;;;;;;;8.38;3.60;;;;;;;27.66;52.46;100612.94;4995616;28;20037;-70
2022/05/12 09:47:18;;;;;;;6.05;3.58;;;;;;;27.78;53.24;100567.41;4995227;28;20041;-70
2022/05/12 09:49:46;;;;;;;7.95;3.67;;;;;;;28.37;54.30;100615.16;5013800;28;20030;-70
2022/05/12 09:52:28;;;;;;;6.28;3.35;;;;;;;27.76;49.41;100593.69;4995440;28;20033;-71
2022/05/12 09:55:12;;;;;;;5.40;2.90;;;;;;;27.58;48.07;100560.53;5013255;28;20496;-70
2022/05/12 09:57:50;;;;;;;4.07;2.63;;;;;;;28.44;46.76;100587.47;5013318;28;20034;-70
2022/05/12 10:00:31;;;;;;;6.10;3.33;;;;;;;28.66;49.78;100615.91;4995571;28;20488;-70
2022/05/12 10:09:06;;;;;;;7.18;2.75;;;;;;;29.27;46.94;100610.16;5006120;28;20053;-70
2022/05/12 10:11:40;;;;;;;9.07;3.20;;;;;;;29.10;47.58;100596.84;5012766;28;20038;-71
2022/05/12 10:14:07;;;;;;;14.48;3.70;;;;;;;29.12;47.76;100600.16;5013081;28;20439;-71
2022/05/12 10:16:33;;;;;;;5.55;2.78;;;;;;;28.40;46.69;100606.19;5013114;28;20540;-71
2022/05/12 10:19:16;;;;;;;5.43;2.83;;;;;;;27.88;46.43;100590.00;5013032;28;20030;-71
2022/05/12 10:21:47;;;;;;;4.15;2.40;;;;;;;29.41;44.58;100580.84;5011862;28;20029;-71
2022/05/12 10:24:38;;;;;;;;;;;;;;;29.59;44.19;100597.41;5013238;28;20570;-71
2022/05/12 10:27:31;;;;;;;6.15;2.72;;;;;;;29.61;44.86;100595.47;5013013;28;19914;-71
2022/05/12 10:30:05;;;;;;;6.05;2.80;;;;;;;29.97;45.34;100588.44;4995230;28;20041;-71
2022/05/12 10:33:01;;;;;;;5.22;2.58;;;;;;;29.02;43.36;100591.50;5012626;28;20030;-70
2022/05/12 10:35:43;;;;;;;4.72;2.67;;;;;;;29.91;44.51;100592.50;5012459;28;20507;-70
2022/05/12 10:38:50;;;;;;;3.55;2.10;;;;;;;29.32;43.92;100579.09;5012502;28;20030;-70
2022/05/12 10:41:21;;;;;;;5.88;2.47;;;;;;;29.34;44.45;100529.97;5012376;28;20060;-70
2022/05/12 10:44:00;;;;;;;5.20;2.40;;;;;;;28.16;43.89;100580.50;5012445;28;20116;-70
2022/05/12 10:46:50;;;;;;;3.53;1.92;;;;;;;28.18;42.38;100541.94;5012247;28;20052;-71
2022/05/12 10:49:26;;;;;;;3.90;2.45;;;;;;;27.81;43.63;100526.13;4994513;28;20030;-71
2022/05/12 10:52:04;;;;;;;3.65;2.30;;;;;;;28.76;42.69;100524.25;5012220;28;20062;-71
2022/05/12 10:54:37;;;;;;;4.15;2.42;;;;;;;29.02;43.97;100569.72;5012075;28;20476;-70
2022/05/12 10:57:12;;;;;;;5.07;2.47;;;;;;;29.69;41.83;100574.56;5012181;28;20518;-71
2022/05/12 11:00:08;;;;;;;4.45;2.30;;;;;;;28.08;41.99;100526.28;5011830;28;20026;-70
2022/05/12 11:02:39;;;;;;;3.80;2.15;;;;;;;29.27;41.82;100563.00;5012287;28;20085;-69
2022/05/12 11:05:26;;;;;;;2.78;2.30;;;;;;;29.18;41.84;100521.97;4994064;28;20066;-69
2022/05/12 11:08:13;;;;;;;6.07;2.25;;;;;;;28.86;40.78;100510.13;5005071;28;20042;-69
2022/05/12 11:10:50;;;;;;;3.38;2.38;;;;;;;28.87;41.15;100545.00;5005742;28;20084;-68
2022/05/12 11:13:26;;;;;;;3.95;2.35;;;;;;;29.05;42.65;100562.44;5011888;28;20530;-69
2022/05/12 11:16:00;;;;;;;4.68;2.50;;;;;;;29.45;40.37;100520.13;5005541;28;20496;-70
2022/05/12 11:18:43;;;;;;;2.65;1.90;;;;;;;28.45;41.12;100552.44;4977279;28;20026;-70
2022/05/12 11:21:25;;;;;;;4.20;2.35;;;;;;;28.50;40.29;100545.00;4992162;28;20080;-69
2022/05/12 11:23:50;;;;;;;4.97;1.92;;;;;;;29.81;41.15;100549.78;4992210;28;20098;-69
2022/05/12 11:26:37;;;;;;;2.45;1.90;;;;;;;28.90;39.38;100506.25;4999489;28;20061;-69
2022/05/12 11:31:51;;;;;;;3.55;1.50;;;;;;;29.44;37.00;100546.47;5011305;28;20041;-69
2022/05/12 11:34:21;;;;;;;3.15;1.50;;;;;;;29.77;36.09;100533.50;5011426;28;20030;-69
2022/05/12 11:36:50;;;;;;;3.35;1.63;;;;;;;29.04;36.02;100500.50;5011350;28;20045;-69
2022/05/12 11:39:51;;;;;;;2.58;2.05;;;;;;;28.92;40.27;100542.78;5011408;28;20037;-69
2022/05/12 11:44:23;;;;;;;6.00;2.20;;;;;;;29.06;42.62;100529.16;5011375;28;20030;-68
2022/05/12 11:45:35;;;;;;;5.90;2.38;;;;;;;28.72;40.72;100445.16;5010760;28;20571;-69
2022/05/12 11:48:15;;;;;;;4.18;2.13;;;;;;;29.65;39.02;100524.19;4993713;28;20468;-69